Time;durP1;ratioP1;P1;durP2;ratioP2;P2;SDS_P1;SDS_P2;PMS_P1;PMS_P2;Temp;Humidity;BMP_temperature;BMP_pressure;BME280_temperature;BME280_humidity;BME280_pressure;Samples;Min_cycle;Max_cycle;Signal;HPM_P1;HPM_P2
2021/03/09 00:01:40;;;;;;;36.98;16.93;;;;;;;2.32;48.24;99238.64;1799713;79;21122;-82
2021/03/09 00:04:08;;;;;;;40.10;15.83;;;;;;;2.31;48.17;99245.48;1816549;79;21293;-81
2021/03/09 00:06:36;;;;;;;46.95;16.95;;;;;;;2.30;48.32;99244.18;1750004;81;21288;-82
2021/03/09 00:09:04;;;;;;;40.12;16.77;;;;;;;2.26;49.19;99244.56;1769622;81;21329;-82
2021/03/09 00:11:32;;;;;;;34.30;14.53;;;;;;;2.26;48.31;99240.72;1789858;80;21129;-82
2021/03/09 00:14:00;;;;;;;38.20;15.83;;;;;;;2.24;48.37;99244.12;1754315;82;21526;-82
2021/03/09 00:16:27;;;;;;;38.40;14.80;;;;;;;2.21;48.66;99244.07;1770027;80;21257;-82
2021/03/09 00:18:56;;;;;;;40.05;15.98;;;;;;;2.16;48.80;99239.75;1737950;83;21299;-82
2021/03/09 00:21:23;;;;;;;29.75;13.83;;;;;;;2.12;48.62;99244.41;1737231;82;21315;-82
2021/03/09 00:23:51;;;;;;;39.60;15.83;;;;;;;2.07;49.09;99238.78;1769295;80;21161;-83
2021/03/09 00:26:18;;;;;;;38.20;17.07;;;;;;;2.03;49.30;99246.00;1769516;81;21256;-83
2021/03/09 00:28:46;;;;;;;39.03;14.43;;;;;;;1.98;48.20;99250.66;1737565;80;21450;-83
2021/03/09 00:31:14;;;;;;;40.88;16.73;;;;;;;1.88;47.91;99253.11;1745144;80;21257;-83
2021/03/09 00:33:42;;;;;;;38.85;16.00;;;;;;;1.70;51.40;99248.61;1750277;81;21231;-83
2021/03/09 00:36:10;;;;;;;47.98;19.07;;;;;;;1.58;53.17;99249.30;1751627;80;21281;-82
2021/03/09 00:38:37;;;;;;;43.58;17.67;;;;;;;1.49;51.66;99251.33;1765103;81;21218;-83
2021/03/09 00:41:05;;;;;;;49.13;19.02;;;;;;;1.41;52.05;99245.22;1755346;82;21161;-83
2021/03/09 00:43:33;;;;;;;43.23;17.75;;;;;;;1.34;52.53;99254.52;1773548;78;21195;-82
2021/03/09 00:46:01;;;;;;;43.05;17.73;;;;;;;1.25;50.96;99253.52;1790557;78;21137;-81
2021/03/09 00:48:41;;;;;;;43.78;16.27;;;;;;;1.16;51.98;99261.94;1789853;80;21238;-83
2021/03/09 00:51:09;;;;;;;47.58;17.92;;;;;;;1.09;52.33;99261.39;1777320;80;21242;-82
2021/03/09 00:53:38;;;;;;;34.90;14.63;;;;;;;0.99;52.46;99256.15;1781654;79;21164;-82
2021/03/09 00:56:05;;;;;;;42.67;17.62;;;;;;;0.93;53.42;99247.06;1789736;80;21292;-82
2021/03/09 00:58:33;;;;;;;42.60;17.50;;;;;;;0.85;52.40;99258.88;1777036;80;21283;-83
2021/03/09 01:01:01;;;;;;;40.63;16.02;;;;;;;0.78;52.36;99259.63;1754422;82;21303;-82
2021/03/09 01:03:29;;;;;;;43.52;18.45;;;;;;;0.71;52.01;99253.95;1778785;80;21290;-83
2021/03/09 01:05:57;;;;;;;37.38;15.08;;;;;;;0.64;51.28;99254.28;1748884;80;21237;-81
2021/03/09 01:08:25;;;;;;;42.85;17.92;;;;;;;0.56;53.59;99256.70;1775589;80;21279;-82
2021/03/09 01:10:53;;;;;;;39.08;15.58;;;;;;;0.51;54.18;99257.02;1791758;79;21279;-83
2021/03/09 01:13:21;;;;;;;40.90;17.05;;;;;;;0.47;53.39;99262.06;1812924;79;21234;-83
2021/03/09 01:15:49;;;;;;;36.05;14.55;;;;;;;0.41;53.36;99258.12;1750094;81;21122;-82
2021/03/09 01:18:20;;;;;;;42.83;17.90;;;;;;;0.35;54.45;99262.27;1774442;77;21122;-83
2021/03/09 01:20:48;;;;;;;42.90;17.95;;;;;;;0.31;53.56;99262.20;1750622;81;21123;-84
2021/03/09 01:23:16;;;;;;;38.23;16.57;;;;;;;0.27;54.99;99256.58;1797576;78;21232;-85
2021/03/09 01:25:44;;;;;;;43.87;19.20;;;;;;;0.20;54.53;99256.89;1820160;77;21184;-82
2021/03/09 01:28:12;;;;;;;45.40;16.87;;;;;;;0.17;54.80;99258.95;1820030;78;21261;-83
2021/03/09 01:30:40;;;;;;;58.05;20.72;;;;;;;0.12;55.56;99250.35;1750015;79;21830;-83
2021/03/09 01:33:10;;;;;;;50.70;19.20;;;;;;;0.07;54.24;99260.04;1780182;77;21078;-82
2021/03/09 01:35:38;;;;;;;53.10;21.25;;;;;;;0.00;55.45;99260.34;1749593;82;21315;-80
2021/03/09 01:38:06;;;;;;;46.35;17.48;;;;;;;-0.08;53.00;99258.02;1753013;81;21161;-80
2021/03/09 01:40:34;;;;;;;54.63;20.68;;;;;;;-0.17;56.48;99256.58;1742964;82;22360;-80
2021/03/09 01:43:04;;;;;;;43.75;17.42;;;;;;;-0.23;54.99;99254.33;1773378;79;21178;-80
2021/03/09 01:45:32;;;;;;;40.60;15.43;;;;;;;-0.26;55.25;99260.67;1819328;77;21117;-81
2021/03/09 01:48:04;;;;;;;44.08;18.65;;;;;;;-0.29;54.28;99261.02;1820282;79;21280;-80
2021/03/09 01:50:39;;;;;;;46.48;16.95;;;;;;;-0.32;54.97;99259.66;1813171;79;21198;-81
2021/03/09 01:53:07;;;;;;;40.75;17.32;;;;;;;-0.36;61.05;99261.28;1796044;79;21236;-80
2021/03/09 01:55:36;;;;;;;54.65;18.70;;;;;;;-0.40;57.17;99260.77;1803913;78;21259;-80
2021/03/09 01:58:10;;;;;;;40.45;15.43;;;;;;;-0.44;56.35;99256.42;1776312;79;21166;-79
2021/03/09 02:00:42;;;;;;;42.20;17.98;;;;;;;-0.47;58.84;99257.66;1788209;80;21269;-80
2021/03/09 02:03:10;;;;;;;40.08;16.15;;;;;;;-0.50;60.03;99252.46;1807303;79;21252;-79
2021/03/09 02:05:38;;;;;;;39.00;14.58;;;;;;;-0.54;60.42;99257.06;1748847;82;21312;-80
2021/03/09 02:08:06;;;;;;;52.85;19.02;;;;;;;-0.58;58.01;99258.67;1818622;79;21152;-80
2021/03/09 02:10:35;;;;;;;44.27;16.70;;;;;;;-0.58;57.48;99262.93;1791435;79;21313;-80
2021/03/09 02:13:37;;;;;;;37.50;15.15;;;;;;;-0.62;58.28;99265.44;1775659;80;21283;-80
2021/03/09 02:16:59;;;;;;;42.88;17.70;;;;;;;-0.65;58.04;99261.94;1810259;79;21276;-80
2021/03/09 02:20:18;;;;;;;40.35;15.68;;;;;;;-0.72;58.81;99258.36;1799323;79;21317;-80
2021/03/09 02:23:39;;;;;;;37.28;16.40;;;;;;;-0.77;58.53;99265.50;1799248;78;21262;-80
2021/03/09 02:26:12;;;;;;;43.40;16.50;;;;;;;-0.82;58.30;99264.98;1808273;77;21126;-79
2021/03/09 02:29:03;;;;;;;43.25;16.27;;;;;;;-0.86;58.09;99267.41;1779886;80;21193;-81
2021/03/09 02:31:32;;;;;;;36.60;14.90;;;;;;;-0.89;58.35;99268.63;1786218;79;21121;-79
2021/03/09 02:34:08;;;;;;;34.03;15.40;;;;;;;-0.92;60.61;99262.16;1786180;79;21149;-79
2021/03/09 02:36:42;;;;;;;36.90;15.15;;;;;;;-0.98;59.64;99264.14;1808083;79;21130;-79
2021/03/09 02:39:13;;;;;;;42.15;16.35;;;;;;;-1.02;61.05;99261.93;1811156;79;21191;-80
2021/03/09 02:41:47;;;;;;;45.60;15.55;;;;;;;-1.04;57.40;99266.55;1800431;79;21305;-81
2021/03/09 02:44:20;;;;;;;38.23;14.25;;;;;;;-1.06;60.54;99270.34;1810922;79;21237;-80
2021/03/09 02:46:49;;;;;;;37.40;14.33;;;;;;;-1.08;58.99;99267.30;1786992;79;21271;-81
2021/03/09 02:49:20;;;;;;;34.60;14.30;;;;;;;-1.11;58.23;99272.36;1817062;79;21307;-80
2021/03/09 02:51:49;;;;;;;38.53;16.07;;;;;;;-1.16;59.53;99268.39;1797116;79;21241;-81
2021/03/09 02:54:19;;;;;;;33.30;15.75;;;;;;;-1.24;58.51;99273.30;1788485;79;21165;-80
2021/03/09 02:56:49;;;;;;;35.15;15.78;;;;;;;-1.34;62.92;99276.45;1796582;79;21282;-80
2021/03/09 02:59:19;;;;;;;36.30;14.47;;;;;;;-1.38;60.47;99282.30;1807630;79;21281;-80
2021/03/09 03:01:52;;;;;;;35.20;15.77;;;;;;;-1.44;59.02;99280.45;1748686;82;21256;-81
2021/03/09 03:04:21;;;;;;;44.75;16.67;;;;;;;-1.52;63.20;99284.91;1808317;78;21623;-81
2021/03/09 03:06:51;;;;;;;44.93;18.17;;;;;;;-1.57;60.92;99284.80;1789329;79;21183;-79
2021/03/09 03:09:21;;;;;;;76.72;26.05;;;;;;;-1.64;61.82;99286.30;1797871;79;21247;-79
2021/03/09 03:11:51;;;;;;;41.08;18.52;;;;;;;-1.70;60.84;99294.20;1786559;80;21173;-78
2021/03/09 03:14:20;;;;;;;43.50;16.93;;;;;;;-1.75;60.84;99299.58;1770282;80;21148;-79
2021/03/09 03:16:50;;;;;;;58.25;22.42;;;;;;;-1.83;62.14;99302.80;1772755;80;21148;-80
2021/03/09 03:19:21;;;;;;;65.55;24.65;;;;;;;-1.84;61.40;99301.47;1761398;80;21297;-79
2021/03/09 03:21:50;;;;;;;49.48;17.73;;;;;;;-1.86;60.67;99306.94;1782298;80;21128;-79
2021/03/09 03:24:18;;;;;;;48.90;17.40;;;;;;;-1.90;62.87;99305.98;1777498;80;21168;-79
2021/03/09 03:26:47;;;;;;;57.70;20.55;;;;;;;-1.90;63.28;99307.67;1717277;82;21105;-79
2021/03/09 03:30:26;;;;;;;52.23;19.87;;;;;;;-1.92;60.84;99313.14;1757247;80;21146;-79
2021/03/09 03:32:54;;;;;;;37.88;15.70;;;;;;;-1.93;61.29;99311.39;1747235;80;21159;-79
2021/03/09 03:35:22;;;;;;;36.33;15.32;;;;;;;-1.97;63.90;99314.30;1772359;80;21147;-79
2021/03/09 03:37:50;;;;;;;43.35;16.95;;;;;;;-2.00;61.64;99314.19;1761887;80;21176;-79
2021/03/09 03:40:21;;;;;;;37.30;15.10;;;;;;;-2.01;62.05;99315.00;1763862;81;21712;-80
2021/03/09 03:42:49;;;;;;;40.75;15.23;;;;;;;-2.01;63.23;99309.90;1780455;81;21303;-80
2021/03/09 03:45:22;;;;;;;47.93;17.30;;;;;;;-2.02;63.50;99308.19;1780301;81;21152;-80
2021/03/09 03:47:56;;;;;;;50.17;19.65;;;;;;;-2.03;61.45;99314.09;1780634;81;21303;-80
2021/03/09 03:50:26;;;;;;;38.55;15.58;;;;;;;-2.07;61.94;99305.91;1774875;81;21261;-80
2021/03/09 03:53:19;;;;;;;41.10;15.40;;;;;;;-2.10;60.21;99313.48;1773013;81;21311;-80
2021/03/09 03:56:07;;;;;;;51.28;18.05;;;;;;;-2.13;60.81;99315.53;1770284;81;21283;-81
2021/03/09 03:59:05;;;;;;;43.10;17.45;;;;;;;-2.16;63.85;99317.13;1775502;81;21287;-80
2021/03/09 04:01:33;;;;;;;38.75;16.07;;;;;;;-2.21;62.46;99322.95;1770803;81;21340;-79
2021/03/09 04:04:06;;;;;;;39.60;16.82;;;;;;;-2.21;62.43;99320.41;1753897;81;21243;-81
2021/03/09 04:06:43;;;;;;;42.45;15.28;;;;;;;-2.21;62.45;99328.05;1778376;81;22368;-79
2021/03/09 04:09:12;;;;;;;41.73;17.50;;;;;;;-2.18;64.29;99323.86;1775721;81;21258;-81
2021/03/09 04:11:39;;;;;;;45.60;18.02;;;;;;;-2.21;64.06;99324.22;1806421;79;21283;-80
2021/03/09 04:14:09;;;;;;;38.48;16.15;;;;;;;-2.22;65.83;99328.84;1813190;77;21250;-80
2021/03/09 04:16:38;;;;;;;37.75;16.12;;;;;;;-2.22;63.44;99328.84;1803835;79;21161;-81
2021/03/09 04:19:06;;;;;;;48.38;19.35;;;;;;;-2.21;61.90;99332.25;1799754;79;21286;-79
2021/03/09 04:21:36;;;;;;;41.13;16.35;;;;;;;-2.20;62.04;99336.54;1795222;77;21125;-81
2021/03/09 04:24:06;;;;;;;36.53;15.45;;;;;;;-2.17;62.17;99338.30;1791032;79;21308;-80
2021/03/09 04:26:35;;;;;;;37.73;13.43;;;;;;;-2.18;65.28;99342.55;1792218;77;21139;-80
2021/03/09 04:29:03;;;;;;;40.70;14.93;;;;;;;-2.14;63.73;99344.78;1743461;81;21378;-81
2021/03/09 04:31:31;;;;;;;38.35;16.23;;;;;;;-2.10;65.04;99347.45;1771514;81;21165;-80
2021/03/09 04:34:00;;;;;;;43.05;18.45;;;;;;;-2.08;63.07;99351.33;1728345;82;21168;-80
2021/03/09 04:36:29;;;;;;;36.10;16.37;;;;;;;-2.06;62.66;99349.69;1722445;82;21271;-80
2021/03/09 04:38:59;;;;;;;49.75;18.20;;;;;;;-2.05;64.19;99347.19;1722194;82;21302;-81
2021/03/09 04:41:26;;;;;;;41.30;16.00;;;;;;;-1.96;65.87;99349.12;1761444;81;21202;-79
2021/03/09 04:43:54;;;;;;;39.90;15.43;;;;;;;-1.90;64.98;99352.27;1752229;81;21283;-80
2021/03/09 04:46:22;;;;;;;36.33;15.35;;;;;;;-1.83;65.14;99352.49;1771806;81;21326;-80
2021/03/09 04:48:51;;;;;;;47.43;15.98;;;;;;;-1.77;65.43;99350.53;1750519;81;21305;-80
2021/03/09 04:51:20;;;;;;;42.78;15.95;;;;;;;-1.71;64.41;99360.02;1741775;81;21287;-80
2021/03/09 04:53:49;;;;;;;38.60;15.93;;;;;;;-1.65;65.05;99356.36;1766881;81;21280;-82
2021/03/09 04:56:16;;;;;;;47.48;16.55;;;;;;;-1.59;65.83;99357.83;1742541;82;21137;-80
2021/03/09 04:58:44;;;;;;;42.23;16.45;;;;;;;-1.53;65.91;99357.11;1737990;82;21279;-79
2021/03/09 05:01:11;;;;;;;38.58;15.60;;;;;;;-1.52;64.78;99360.98;1760939;81;21273;-80
2021/03/09 05:03:38;;;;;;;42.08;16.10;;;;;;;-1.50;64.49;99359.76;1744735;81;21571;-81
2021/03/09 05:06:06;;;;;;;42.05;17.00;;;;;;;-1.46;65.02;99367.95;1721151;82;21355;-81
2021/03/09 05:08:33;;;;;;;42.65;16.37;;;;;;;-1.43;63.29;99359.97;1770286;81;21291;-81
2021/03/09 05:11:01;;;;;;;43.85;16.95;;;;;;;-1.41;65.77;99359.60;1752604;81;21283;-81
2021/03/09 05:13:30;;;;;;;44.53;17.62;;;;;;;-1.38;65.13;99363.05;1753541;81;21244;-80
2021/03/09 05:15:58;;;;;;;51.77;18.42;;;;;;;-1.36;65.48;99365.23;1761377;81;21162;-79
2021/03/09 05:18:26;;;;;;;42.50;17.60;;;;;;;-1.34;63.88;99375.92;1797499;80;21280;-80
2021/03/09 05:20:53;;;;;;;44.50;19.50;;;;;;;-1.35;64.98;99366.95;1764837;81;21167;-79
2021/03/09 05:23:20;;;;;;;42.30;17.23;;;;;;;-1.34;63.16;99365.72;1805348;79;21268;-79
2021/03/09 05:25:48;;;;;;;42.93;17.15;;;;;;;-1.30;63.91;99364.98;1751851;81;21284;-81
2021/03/09 05:28:15;;;;;;;53.55;21.50;;;;;;;-1.27;64.05;99366.77;1764053;81;21306;-79
2021/03/09 05:30:42;;;;;;;74.97;29.32;;;;;;;-1.21;65.04;99375.44;1765033;81;21168;-80
2021/03/09 05:33:10;;;;;;;56.70;21.20;;;;;;;-1.14;64.13;99374.32;1742484;81;21187;-79
2021/03/09 05:35:37;;;;;;;56.28;25.70;;;;;;;-1.07;64.86;99373.67;1762597;81;21272;-80
2021/03/09 05:38:05;;;;;;;52.27;20.97;;;;;;;-0.99;63.45;99367.07;1815701;79;21126;-80
2021/03/09 05:40:33;;;;;;;72.92;27.48;;;;;;;-0.93;63.56;99365.95;1767075;81;21279;-81
2021/03/09 05:43:01;;;;;;;58.52;23.45;;;;;;;-0.86;63.60;99374.19;1765542;81;21291;-80
2021/03/09 05:45:29;;;;;;;49.38;18.85;;;;;;;-0.79;64.91;99375.23;1744043;81;21263;-81
2021/03/09 05:47:59;;;;;;;56.63;22.27;;;;;;;-0.71;64.65;99375.42;1799146;79;21169;-80
2021/03/09 05:50:26;;;;;;;54.50;18.77;;;;;;;-0.63;63.77;99387.54;1807558;79;21209;-79
2021/03/09 05:52:54;;;;;;;51.00;19.25;;;;;;;-0.52;63.67;99379.27;1798289;79;21261;-80
2021/03/09 05:55:22;;;;;;;123.28;25.80;;;;;;;-0.44;62.69;99386.30;1787678;79;22550;-80
2021/03/09 05:57:50;;;;;;;113.25;33.18;;;;;;;-0.37;62.22;99384.75;1795260;79;21284;-80
2021/03/09 06:00:19;;;;;;;53.30;20.43;;;;;;;-0.23;63.06;99387.62;1747170;81;21172;-81
2021/03/09 06:02:47;;;;;;;51.80;19.55;;;;;;;-0.18;63.43;99394.11;1761434;81;21532;-79
2021/03/09 06:05:15;;;;;;;71.97;25.30;;;;;;;-0.12;63.05;99397.69;1806686;79;21141;-79
2021/03/09 06:07:43;;;;;;;59.83;20.05;;;;;;;-0.03;63.19;99400.84;1755216;81;21224;-80
2021/03/09 06:10:22;;;;;;;60.60;21.30;;;;;;;0.07;62.62;99402.77;1804425;79;21271;-78
2021/03/09 06:12:51;;;;;;;50.20;19.30;;;;;;;0.17;62.36;99404.70;1762963;81;21510;-80
2021/03/09 06:15:19;;;;;;;74.15;22.17;;;;;;;0.27;62.23;99407.46;1766123;80;21212;-82
2021/03/09 06:17:56;;;;;;;55.38;19.40;;;;;;;0.38;61.53;99407.28;1764436;81;21318;-79
2021/03/09 06:20:30;;;;;;;56.00;22.27;;;;;;;0.48;61.50;99407.02;1766368;81;21101;-81
2021/03/09 06:23:01;;;;;;;53.63;18.70;;;;;;;0.58;61.28;99409.82;1752584;80;21181;-80
2021/03/09 06:25:38;;;;;;;54.40;20.80;;;;;;;0.59;60.86;99414.09;1778230;80;21239;-83
2021/03/09 06:28:09;;;;;;;54.10;22.00;;;;;;;0.55;61.10;99417.42;1795507;80;21221;-83
2021/03/09 06:30:41;;;;;;;65.03;21.93;;;;;;;0.64;61.22;99419.70;1785529;80;21557;-83
2021/03/09 06:33:09;;;;;;;56.90;19.73;;;;;;;0.75;60.82;99411.84;1765826;80;21222;-81
2021/03/09 06:35:43;;;;;;;46.20;18.80;;;;;;;0.85;60.17;99414.16;1797193;80;21283;-81
2021/03/09 06:38:28;;;;;;;50.25;20.70;;;;;;;0.89;60.06;99420.64;1798918;80;21290;-83
2021/03/09 06:41:16;;;;;;;50.60;17.55;;;;;;;0.95;60.26;99420.75;1798714;80;21237;-82
2021/03/09 06:43:49;;;;;;;61.00;20.77;;;;;;;1.04;59.84;99429.47;1785667;80;21228;-82
2021/03/09 06:46:20;;;;;;;51.88;19.73;;;;;;;1.04;60.27;99420.50;1765848;80;21150;-81
2021/03/09 06:48:52;;;;;;;49.95;19.40;;;;;;;1.08;60.68;99425.70;1741201;81;21284;-82
2021/03/09 06:51:32;;;;;;;57.08;21.12;;;;;;;1.17;60.59;99420.75;1756545;81;21153;-80
2021/03/09 06:54:07;;;;;;;47.75;18.95;;;;;;;1.31;60.22;99422.28;1775597;80;21288;-81
2021/03/09 06:56:38;;;;;;;58.10;21.02;;;;;;;1.39;59.74;99420.70;1810156;79;21312;-82
2021/03/09 06:59:24;;;;;;;63.25;23.45;;;;;;;1.55;60.10;99431.19;1812920;79;21228;-82
2021/03/09 07:02:10;;;;;;;65.15;23.98;;;;;;;1.72;59.87;99431.05;1791275;80;21642;-83
2021/03/09 07:04:44;;;;;;;51.88;20.32;;;;;;;1.95;60.17;99427.97;1798910;79;21162;-81
2021/03/09 07:07:15;;;;;;;48.40;19.07;;;;;;;2.10;58.93;99432.05;1801076;79;21148;-82
2021/03/09 07:09:56;;;;;;;52.93;20.85;;;;;;;2.17;58.64;99432.59;1818663;79;21551;-83
2021/03/09 07:12:24;;;;;;;53.25;20.88;;;;;;;2.25;58.21;99427.57;1757938;81;21827;-82
2021/03/09 07:14:53;;;;;;;59.23;22.80;;;;;;;2.41;57.79;99429.03;1772208;81;21192;-81
2021/03/09 07:17:24;;;;;;;58.52;24.35;;;;;;;2.42;57.69;99430.77;1754772;81;21331;-82
2021/03/09 07:19:53;;;;;;;44.23;17.23;;;;;;;2.42;57.65;99428.20;1765740;81;21153;-83
2021/03/09 07:22:24;;;;;;;51.92;20.72;;;;;;;2.50;57.36;99426.59;1768363;81;21299;-81
2021/03/09 07:25:05;;;;;;;42.83;16.57;;;;;;;2.51;57.11;99420.20;1737243;81;21319;-82
2021/03/09 07:28:01;;;;;;;34.27;15.32;;;;;;;2.53;56.66;99423.66;1709574;83;21277;-81
2021/03/09 07:30:35;;;;;;;33.48;14.98;;;;;;;2.51;56.73;99425.34;1801891;79;21245;-81
2021/03/09 07:33:04;;;;;;;41.20;14.65;;;;;;;2.47;56.77;99426.15;1788079;79;21146;-81
2021/03/09 07:35:32;;;;;;;30.50;13.68;;;;;;;2.61;56.22;99424.16;1796952;79;21296;-82
2021/03/09 07:38:00;;;;;;;29.10;12.35;;;;;;;2.47;56.06;99423.58;1811665;79;21154;-78
2021/03/09 07:40:33;;;;;;;32.42;13.58;;;;;;;2.43;56.23;99423.10;1803456;79;21292;-79
2021/03/09 07:43:02;;;;;;;32.88;11.73;;;;;;;2.48;55.92;99424.00;1742554;81;21180;-81
2021/03/09 07:45:36;;;;;;;30.85;14.33;;;;;;;2.47;56.00;99414.59;1758966;81;21287;-81
2021/03/09 07:48:07;;;;;;;33.67;13.88;;;;;;;2.40;56.59;99415.34;1758369;81;21304;-82
2021/03/09 07:50:40;;;;;;;23.47;10.90;;;;;;;2.44;55.96;99410.70;1750615;81;21267;-81
2021/03/09 07:53:17;;;;;;;33.25;12.68;;;;;;;2.45;56.19;99409.87;1770086;81;21165;-80
2021/03/09 07:55:51;;;;;;;26.52;11.80;;;;;;;2.55;55.61;99410.84;1756355;81;21276;-81
2021/03/09 07:58:26;;;;;;;22.50;10.08;;;;;;;2.59;55.14;99403.62;1756574;81;21339;-81
2021/03/09 08:01:09;;;;;;;24.45;10.35;;;;;;;2.56;55.53;99413.41;1812193;79;21150;-81
2021/03/09 08:03:41;;;;;;;25.12;10.70;;;;;;;2.58;55.22;99409.16;1810659;79;21335;-82
2021/03/09 08:06:16;;;;;;;26.25;10.88;;;;;;;2.55;55.23;99402.72;1803532;79;21179;-80
2021/03/09 08:08:55;;;;;;;24.57;11.15;;;;;;;2.66;55.19;99397.70;1788891;79;21244;-81
2021/03/09 08:11:28;;;;;;;21.60;10.45;;;;;;;2.69;54.85;99391.76;1743920;81;21292;-81
2021/03/09 08:14:15;;;;;;;26.87;11.50;;;;;;;2.76;54.96;99390.97;1719869;82;21574;-81
2021/03/09 08:16:43;;;;;;;28.75;11.85;;;;;;;2.85;54.85;99394.92;1763440;81;21194;-81
2021/03/09 08:19:26;;;;;;;25.97;12.07;;;;;;;2.90;54.80;99389.40;1764328;81;21154;-81
2021/03/09 08:22:01;;;;;;;31.15;13.93;;;;;;;2.97;55.04;99388.63;1746825;81;21331;-81
2021/03/09 08:24:46;;;;;;;29.72;12.50;;;;;;;3.07;54.89;99391.30;1754281;81;21196;-82
2021/03/09 08:27:31;;;;;;;30.05;12.73;;;;;;;3.17;54.70;99386.25;1766112;81;21299;-82
2021/03/09 08:30:27;;;;;;;32.30;12.35;;;;;;;3.20;54.15;99384.13;1759466;81;21185;-82
2021/03/09 08:33:25;;;;;;;33.33;13.30;;;;;;;3.24;53.95;99389.73;1760541;81;21271;-81
2021/03/09 08:35:54;;;;;;;30.85;11.80;;;;;;;3.32;54.26;99384.66;1755669;81;21323;-81
2021/03/09 08:38:24;;;;;;;29.80;11.90;;;;;;;3.46;53.82;99382.21;1753149;81;21315;-80
2021/03/09 08:41:08;;;;;;;26.10;12.18;;;;;;;3.47;53.20;99378.38;1763263;81;21291;-82
2021/03/09 08:43:38;;;;;;;21.70;10.78;;;;;;;3.48;53.61;99380.52;1751561;81;21252;-82
2021/03/09 08:46:06;;;;;;;27.20;12.40;;;;;;;3.56;53.05;99381.03;1757275;80;21133;-82
2021/03/09 08:48:50;;;;;;;28.47;11.68;;;;;;;3.63;53.10;99376.78;1760743;81;21302;-81
2021/03/09 08:51:43;;;;;;;33.53;11.38;;;;;;;3.72;53.06;99373.41;1766722;81;21550;-82
2021/03/09 08:54:36;;;;;;;26.95;11.50;;;;;;;3.80;52.62;99373.06;1764884;81;21197;-81
2021/03/09 08:57:12;;;;;;;26.70;12.43;;;;;;;3.88;52.48;99361.11;1746131;81;21204;-81
2021/03/09 08:59:42;;;;;;;25.17;11.05;;;;;;;3.97;52.47;99361.14;1758922;80;21173;-80
2021/03/09 09:02:26;;;;;;;28.62;11.33;;;;;;;4.05;52.16;99362.48;1748008;81;21187;-81
2021/03/09 09:05:06;;;;;;;27.58;12.75;;;;;;;4.15;51.82;99366.81;1761648;81;21179;-80
2021/03/09 09:07:39;;;;;;;29.20;11.28;;;;;;;4.21;51.79;99367.28;1757201;81;21160;-81
2021/03/09 09:10:25;;;;;;;23.90;11.22;;;;;;;4.35;51.68;99373.34;1766999;81;21288;-81
2021/03/09 09:12:55;;;;;;;28.50;13.18;;;;;;;4.40;51.43;99363.09;1762580;81;21637;-84
2021/03/09 09:15:28;;;;;;;21.73;10.25;;;;;;;4.56;51.78;99366.14;1802595;79;21296;-82
2021/03/09 09:18:08;;;;;;;26.57;11.67;;;;;;;4.76;51.50;99358.91;1748024;81;21269;-81
2021/03/09 09:20:46;;;;;;;22.40;10.45;;;;;;;4.87;50.77;99358.48;1803985;79;21271;-81
2021/03/09 09:23:18;;;;;;;22.62;10.58;;;;;;;4.91;49.42;99359.36;1796675;79;21121;-80
2021/03/09 09:25:50;;;;;;;30.00;13.85;;;;;;;5.01;50.29;99356.38;1799278;79;21383;-82
2021/03/09 09:28:31;;;;;;;23.20;10.88;;;;;;;5.09;50.16;99352.09;1785397;79;21166;-81
2021/03/09 09:31:02;;;;;;;31.37;13.22;;;;;;;5.24;49.67;99344.38;1744885;82;21173;-81
2021/03/09 09:33:32;;;;;;;24.18;10.82;;;;;;;5.33;49.54;99343.10;1791424;79;21185;-81
2021/03/09 09:36:01;;;;;;;28.32;15.00;;;;;;;5.45;49.60;99345.23;1731595;82;21338;-80
2021/03/09 09:38:28;;;;;;;21.52;10.15;;;;;;;5.52;48.65;99346.95;1810645;79;21129;-81
2021/03/09 09:40:59;;;;;;;23.77;11.03;;;;;;;5.53;48.32;99338.34;1803020;79;21309;-80
2021/03/09 09:43:30;;;;;;;26.50;12.33;;;;;;;5.62;48.52;99334.48;1746928;81;21336;-81
2021/03/09 09:46:02;;;;;;;21.50;11.70;;;;;;;5.67;46.80;99326.31;1800137;79;21137;-81
2021/03/09 09:48:39;;;;;;;25.35;10.58;;;;;;;5.84;48.82;99329.28;1803336;79;21295;-81
2021/03/09 09:51:17;;;;;;;21.05;10.48;;;;;;;5.91;47.24;99327.13;1807198;79;21159;-81
2021/03/09 09:53:48;;;;;;;21.82;11.20;;;;;;;5.92;45.51;99330.13;1776097;79;21633;-83
2021/03/09 09:56:23;;;;;;;22.87;10.88;;;;;;;6.02;45.87;99321.52;1802347;79;21284;-81
2021/03/09 09:59:00;;;;;;;21.02;9.13;;;;;;;6.11;46.49;99311.62;1810588;79;21626;-82
2021/03/09 10:01:39;;;;;;;27.05;13.62;;;;;;;6.28;47.26;99314.97;1734474;82;21165;-80
2021/03/09 10:04:10;;;;;;;23.32;10.75;;;;;;;6.41;45.66;99309.33;1817336;79;21907;-81
2021/03/09 10:06:44;;;;;;;21.73;10.75;;;;;;;6.45;44.60;99312.77;1795170;79;21765;-80
2021/03/09 10:09:17;;;;;;;26.25;11.20;;;;;;;6.51;46.07;99317.89;1778791;79;21610;-81
2021/03/09 10:11:57;;;;;;;22.32;9.73;;;;;;;6.67;46.61;99315.64;1732778;82;21209;-80
2021/03/09 10:14:28;;;;;;;32.67;14.68;;;;;;;6.83;45.41;99317.70;1799162;79;21159;-80
2021/03/09 10:16:56;;;;;;;19.90;9.45;;;;;;;6.91;44.57;99304.30;1814933;79;21272;-81
2021/03/09 10:19:37;;;;;;;19.07;9.65;;;;;;;6.99;43.40;99299.52;1805464;79;21153;-80
2021/03/09 10:22:17;;;;;;;21.70;10.15;;;;;;;7.08;44.12;99292.55;1791554;79;22200;-80
2021/03/09 10:24:44;;;;;;;22.58;10.08;;;;;;;7.17;45.28;99304.09;1778106;79;21443;-81
2021/03/09 10:27:24;;;;;;;18.60;9.03;;;;;;;7.30;43.54;99297.52;1738082;82;21210;-81
2021/03/09 10:29:55;;;;;;;28.20;13.50;;;;;;;7.30;42.73;99301.41;1779808;79;21174;-80
2021/03/09 10:32:23;;;;;;;17.77;9.43;;;;;;;7.44;44.38;99296.99;1802342;79;21141;-80
2021/03/09 10:34:56;;;;;;;38.73;17.42;;;;;;;7.59;43.02;99296.42;1736304;82;21177;-84
2021/03/09 10:37:41;;;;;;;25.52;10.75;;;;;;;7.66;42.49;99296.76;1765075;81;21160;-81
2021/03/09 10:40:14;;;;;;;29.25;12.82;;;;;;;7.73;41.10;99279.02;1767596;81;21600;-80
2021/03/09 10:42:52;;;;;;;28.05;12.73;;;;;;;7.88;43.50;99279.30;1737780;82;21173;-84
2021/03/09 10:45:29;;;;;;;29.90;13.53;;;;;;;8.05;43.72;99273.91;1794177;79;21152;-80
2021/03/09 10:47:59;;;;;;;32.38;12.75;;;;;;;8.24;43.54;99271.52;1803073;79;21948;-81
2021/03/09 10:50:31;;;;;;;56.85;22.50;;;;;;;8.47;43.22;99272.52;1805898;79;21157;-81
2021/03/09 10:52:58;;;;;;;23.50;11.18;;;;;;;8.56;42.98;99256.02;1792249;79;21138;-80
2021/03/09 10:55:26;;;;;;;23.50;9.58;;;;;;;8.75;42.23;99257.88;1798227;79;22037;-78
2021/03/09 10:57:53;;;;;;;28.07;12.13;;;;;;;8.88;42.52;99249.04;1796570;79;21707;-80
2021/03/09 11:00:22;;;;;;;24.15;11.05;;;;;;;9.23;41.30;99255.81;1808796;79;21287;-78
2021/03/09 11:02:50;;;;;;;21.52;10.35;;;;;;;9.50;42.02;99245.41;1807963;79;21191;-79
2021/03/09 11:05:18;;;;;;;19.32;10.28;;;;;;;9.75;41.25;99249.70;1810469;79;21170;-78
2021/03/09 11:07:45;;;;;;;21.82;9.28;;;;;;;9.76;37.36;99230.17;1796396;79;21116;-78
2021/03/09 11:10:14;;;;;;;22.32;10.58;;;;;;;9.86;38.08;99235.20;1790244;79;21120;-78
2021/03/09 11:12:42;;;;;;;20.50;10.45;;;;;;;10.10;37.05;99235.98;1798213;79;21149;-80
2021/03/09 11:15:10;;;;;;;23.35;11.00;;;;;;;10.15;35.71;99226.81;1801005;79;21372;-79
2021/03/09 11:17:38;;;;;;;20.90;10.30;;;;;;;10.30;36.68;99220.45;1808444;79;21297;-78
2021/03/09 11:20:08;;;;;;;17.73;9.60;;;;;;;10.42;37.75;99222.77;1740142;81;21157;-77
2021/03/09 11:22:36;;;;;;;19.37;10.43;;;;;;;10.51;36.83;99218.67;1750330;80;21148;-79
2021/03/09 11:25:06;;;;;;;20.02;10.05;;;;;;;10.54;33.90;99213.42;1761399;81;21173;-82
2021/03/09 11:27:34;;;;;;;22.32;10.60;;;;;;;10.41;34.31;99208.09;1765369;81;21212;-80
2021/03/09 11:30:05;;;;;;;22.77;10.85;;;;;;;10.60;36.17;99208.50;1764751;81;21178;-82
2021/03/09 11:32:33;;;;;;;21.02;11.18;;;;;;;10.72;35.11;99199.14;1723551;82;21165;-79
2021/03/09 11:35:00;;;;;;;19.80;10.63;;;;;;;10.78;32.86;99204.61;1744746;82;21661;-78
2021/03/09 11:37:28;;;;;;;22.67;10.32;;;;;;;10.90;34.88;99195.66;1768646;81;21149;-78
2021/03/09 11:39:55;;;;;;;26.42;10.78;;;;;;;11.13;34.81;99197.23;1761735;81;21708;-79
2021/03/09 11:42:22;;;;;;;21.17;11.22;;;;;;;11.24;32.51;99194.80;1762126;81;21446;-81
2021/03/09 11:44:49;;;;;;;24.32;12.85;;;;;;;11.15;33.65;99199.34;1737852;81;21173;-79
2021/03/09 11:47:16;;;;;;;22.75;11.10;;;;;;;11.40;33.83;99189.61;1762462;81;21149;-80